sensor_id;sensor_type;location;lat;lon;timestamp;P1;durP1;ratioP1;P2;durP2;ratioP2
11604;SDS011;5858;43.076;25.626;2023-12-20T00:01:13;126.53;;;61.97;;
11604;SDS011;5858;43.076;25.626;2023-12-20T00:03:41;76.97;;;40.70;;
11604;SDS011;5858;43.076;25.626;2023-12-20T00:06:11;54.87;;;36.67;;
11604;SDS011;5858;43.076;25.626;2023-12-20T00:08:38;49.93;;;34.10;;
11604;SDS011;5858;43.076;25.626;2023-12-20T00:11:05;43.03;;;32.37;;
11604;SDS011;5858;43.076;25.626;2023-12-20T00:13:32;46.77;;;34.10;;
11604;SDS011;5858;43.076;25.626;2023-12-20T00:15:59;49.70;;;31.87;;
11604;SDS011;5858;43.076;25.626;2023-12-20T00:18:26;44.70;;;29.90;;
11604;SDS011;5858;43.076;25.626;2023-12-20T00:20:54;36.80;;;27.73;;
11604;SDS011;5858;43.076;25.626;2023-12-20T00:23:21;40.23;;;29.37;;
11604;SDS011;5858;43.076;25.626;2023-12-20T00:25:49;35.63;;;25.80;;
11604;SDS011;5858;43.076;25.626;2023-12-20T00:28:16;35.37;;;26.37;;
11604;SDS011;5858;43.076;25.626;2023-12-20T00:30:43;37.87;;;27.13;;
11604;SDS011;5858;43.076;25.626;2023-12-20T00:33:10;37.50;;;27.30;;
11604;SDS011;5858;43.076;25.626;2023-12-20T00:35:37;33.30;;;26.40;;
11604;SDS011;5858;43.076;25.626;2023-12-20T00:38:05;37.53;;;28.40;;
11604;SDS011;5858;43.076;25.626;2023-12-20T00:40:32;40.00;;;29.30;;
11604;SDS011;5858;43.076;25.626;2023-12-20T00:42:59;51.60;;;34.33;;
11604;SDS011;5858;43.076;25.626;2023-12-20T00:45:26;51.63;;;35.33;;
11604;SDS011;5858;43.076;25.626;2023-12-20T00:47:53;53.13;;;33.73;;
11604;SDS011;5858;43.076;25.626;2023-12-20T00:50:19;53.87;;;35.53;;
11604;SDS011;5858;43.076;25.626;2023-12-20T00:52:47;46.87;;;33.70;;
11604;SDS011;5858;43.076;25.626;2023-12-20T00:55:15;65.67;;;43.30;;
11604;SDS011;5858;43.076;25.626;2023-12-20T00:57:42;74.60;;;45.73;;
11604;SDS011;5858;43.076;25.626;2023-12-20T01:00:10;88.23;;;51.67;;
11604;SDS011;5858;43.076;25.626;2023-12-20T01:02:38;86.00;;;49.77;;
11604;SDS011;5858;43.076;25.626;2023-12-20T01:05:05;77.67;;;44.97;;
11604;SDS011;5858;43.076;25.626;2023-12-20T01:07:34;72.90;;;41.30;;
11604;SDS011;5858;43.076;25.626;2023-12-20T01:10:01;71.70;;;41.77;;
11604;SDS011;5858;43.076;25.626;2023-12-20T01:12:29;66.17;;;38.30;;
11604;SDS011;5858;43.076;25.626;2023-12-20T01:14:56;47.93;;;33.20;;
11604;SDS011;5858;43.076;25.626;2023-12-20T01:17:23;40.80;;;28.33;;
11604;SDS011;5858;43.076;25.626;2023-12-20T01:19:50;45.40;;;29.77;;
11604;SDS011;5858;43.076;25.626;2023-12-20T01:22:17;46.20;;;29.13;;
11604;SDS011;5858;43.076;25.626;2023-12-20T01:24:44;47.30;;;31.73;;
11604;SDS011;5858;43.076;25.626;2023-12-20T01:27:11;44.03;;;31.87;;
11604;SDS011;5858;43.076;25.626;2023-12-20T01:29:39;51.90;;;33.00;;
11604;SDS011;5858;43.076;25.626;2023-12-20T01:32:06;43.80;;;30.43;;
11604;SDS011;5858;43.076;25.626;2023-12-20T01:34:33;60.27;;;37.00;;
11604;SDS011;5858;43.076;25.626;2023-12-20T01:37:00;70.97;;;41.73;;
11604;SDS011;5858;43.076;25.626;2023-12-20T01:39:27;74.27;;;42.23;;
11604;SDS011;5858;43.076;25.626;2023-12-20T01:41:54;64.20;;;39.50;;
11604;SDS011;5858;43.076;25.626;2023-12-20T01:44:23;59.17;;;36.70;;
11604;SDS011;5858;43.076;25.626;2023-12-20T01:46:51;61.83;;;37.80;;
11604;SDS011;5858;43.076;25.626;2023-12-20T01:49:18;72.17;;;41.33;;
11604;SDS011;5858;43.076;25.626;2023-12-20T01:51:46;69.90;;;43.03;;
11604;SDS011;5858;43.076;25.626;2023-12-20T01:54:15;56.33;;;36.63;;
11604;SDS011;5858;43.076;25.626;2023-12-20T01:56:42;56.10;;;36.30;;
11604;SDS011;5858;43.076;25.626;2023-12-20T01:59:09;46.53;;;33.30;;
11604;SDS011;5858;43.076;25.626;2023-12-20T02:01:36;49.50;;;32.30;;
11604;SDS011;5858;43.076;25.626;2023-12-20T02:04:04;43.17;;;30.17;;
11604;SDS011;5858;43.076;25.626;2023-12-20T02:06:31;43.80;;;29.70;;
11604;SDS011;5858;43.076;25.626;2023-12-20T02:09:00;37.20;;;28.40;;
11604;SDS011;5858;43.076;25.626;2023-12-20T02:11:27;42.80;;;31.63;;
11604;SDS011;5858;43.076;25.626;2023-12-20T02:13:53;43.90;;;32.23;;
11604;SDS011;5858;43.076;25.626;2023-12-20T02:16:21;42.13;;;31.70;;
11604;SDS011;5858;43.076;25.626;2023-12-20T02:18:48;40.97;;;29.33;;
11604;SDS011;5858;43.076;25.626;2023-12-20T02:21:16;39.70;;;30.10;;
11604;SDS011;5858;43.076;25.626;2023-12-20T02:23:45;45.27;;;31.90;;
11604;SDS011;5858;43.076;25.626;2023-12-20T02:26:11;43.97;;;31.23;;
11604;SDS011;5858;43.076;25.626;2023-12-20T02:28:39;36.70;;;27.93;;
11604;SDS011;5858;43.076;25.626;2023-12-20T02:31:06;37.60;;;27.23;;
11604;SDS011;5858;43.076;25.626;2023-12-20T02:33:33;37.07;;;28.03;;
11604;SDS011;5858;43.076;25.626;2023-12-20T02:35:59;34.87;;;26.17;;
11604;SDS011;5858;43.076;25.626;2023-12-20T02:38:26;35.23;;;26.10;;
11604;SDS011;5858;43.076;25.626;2023-12-20T02:40:55;34.27;;;26.47;;
11604;SDS011;5858;43.076;25.626;2023-12-20T02:43:21;31.53;;;25.83;;
11604;SDS011;5858;43.076;25.626;2023-12-20T02:45:48;31.03;;;25.03;;
11604;SDS011;5858;43.076;25.626;2023-12-20T02:48:15;32.17;;;24.83;;
11604;SDS011;5858;43.076;25.626;2023-12-20T02:50:42;32.13;;;24.60;;
11604;SDS011;5858;43.076;25.626;2023-12-20T02:53:09;31.47;;;24.70;;
11604;SDS011;5858;43.076;25.626;2023-12-20T02:55:39;33.67;;;24.33;;
11604;SDS011;5858;43.076;25.626;2023-12-20T02:58:07;37.00;;;28.10;;
11604;SDS011;5858;43.076;25.626;2023-12-20T03:00:34;38.03;;;30.33;;
11604;SDS011;5858;43.076;25.626;2023-12-20T03:03:01;43.70;;;32.57;;
11604;SDS011;5858;43.076;25.626;2023-12-20T03:05:27;43.47;;;31.87;;
11604;SDS011;5858;43.076;25.626;2023-12-20T03:07:54;46.27;;;32.13;;
11604;SDS011;5858;43.076;25.626;2023-12-20T03:10:21;46.77;;;33.87;;
11604;SDS011;5858;43.076;25.626;2023-12-20T03:12:48;52.90;;;39.00;;
11604;SDS011;5858;43.076;25.626;2023-12-20T03:15:17;47.53;;;34.37;;
11604;SDS011;5858;43.076;25.626;2023-12-20T03:17:44;48.50;;;34.53;;
11604;SDS011;5858;43.076;25.626;2023-12-20T03:20:11;40.03;;;30.47;;
11604;SDS011;5858;43.076;25.626;2023-12-20T03:22:38;45.90;;;31.47;;
11604;SDS011;5858;43.076;25.626;2023-12-20T03:25:05;39.43;;;30.27;;
11604;SDS011;5858;43.076;25.626;2023-12-20T03:27:32;41.37;;;31.03;;
11604;SDS011;5858;43.076;25.626;2023-12-20T03:29:58;42.83;;;31.33;;
11604;SDS011;5858;43.076;25.626;2023-12-20T03:32:27;37.30;;;29.20;;
11604;SDS011;5858;43.076;25.626;2023-12-20T03:34:54;37.80;;;29.40;;
11604;SDS011;5858;43.076;25.626;2023-12-20T03:37:21;39.67;;;30.27;;
11604;SDS011;5858;43.076;25.626;2023-12-20T03:39:48;36.63;;;27.53;;
11604;SDS011;5858;43.076;25.626;2023-12-20T03:42:15;35.23;;;26.63;;
11604;SDS011;5858;43.076;25.626;2023-12-20T03:44:42;33.77;;;25.73;;
11604;SDS011;5858;43.076;25.626;2023-12-20T03:47:08;33.33;;;25.27;;
11604;SDS011;5858;43.076;25.626;2023-12-20T03:49:37;34.67;;;25.60;;
11604;SDS011;5858;43.076;25.626;2023-12-20T03:52:04;36.10;;;25.53;;
11604;SDS011;5858;43.076;25.626;2023-12-20T03:54:31;31.70;;;24.33;;
11604;SDS011;5858;43.076;25.626;2023-12-20T03:57:00;30.60;;;24.90;;
11604;SDS011;5858;43.076;25.626;2023-12-20T03:59:27;36.43;;;26.10;;
11604;SDS011;5858;43.076;25.626;2023-12-20T04:01:54;31.40;;;25.87;;
11604;SDS011;5858;43.076;25.626;2023-12-20T04:04:21;33.40;;;25.50;;
11604;SDS011;5858;43.076;25.626;2023-12-20T04:06:50;33.80;;;25.33;;
11604;SDS011;5858;43.076;25.626;2023-12-20T04:09:17;32.63;;;26.17;;
11604;SDS011;5858;43.076;25.626;2023-12-20T04:11:44;33.73;;;26.53;;
11604;SDS011;5858;43.076;25.626;2023-12-20T04:14:10;32.87;;;25.80;;
11604;SDS011;5858;43.076;25.626;2023-12-20T04:16:37;31.20;;;24.93;;
11604;SDS011;5858;43.076;25.626;2023-12-20T04:19:05;33.10;;;23.47;;
11604;SDS011;5858;43.076;25.626;2023-12-20T04:21:32;29.53;;;23.20;;
11604;SDS011;5858;43.076;25.626;2023-12-20T04:24:00;27.30;;;22.53;;
11604;SDS011;5858;43.076;25.626;2023-12-20T04:26:27;30.13;;;23.80;;
11604;SDS011;5858;43.076;25.626;2023-12-20T04:28:54;29.57;;;22.83;;
11604;SDS011;5858;43.076;25.626;2023-12-20T04:31:21;29.50;;;21.80;;
11604;SDS011;5858;43.076;25.626;2023-12-20T04:33:48;34.00;;;23.83;;
11604;SDS011;5858;43.076;25.626;2023-12-20T04:36:15;31.97;;;24.20;;
11604;SDS011;5858;43.076;25.626;2023-12-20T04:38:41;32.37;;;22.80;;
11604;SDS011;5858;43.076;25.626;2023-12-20T04:41:10;31.23;;;24.17;;
11604;SDS011;5858;43.076;25.626;2023-12-20T04:43:40;30.90;;;24.60;;
11604;SDS011;5858;43.076;25.626;2023-12-20T04:46:07;32.43;;;23.93;;
11604;SDS011;5858;43.076;25.626;2023-12-20T04:48:34;30.00;;;22.87;;
11604;SDS011;5858;43.076;25.626;2023-12-20T04:51:01;30.57;;;24.17;;
11604;SDS011;5858;43.076;25.626;2023-12-20T04:53:28;33.73;;;24.60;;
11604;SDS011;5858;43.076;25.626;2023-12-20T04:55:55;31.90;;;24.17;;
11604;SDS011;5858;43.076;25.626;2023-12-20T04:58:23;31.53;;;24.70;;
11604;SDS011;5858;43.076;25.626;2023-12-20T05:00:50;33.17;;;26.07;;
11604;SDS011;5858;43.076;25.626;2023-12-20T05:03:17;33.53;;;24.63;;
11604;SDS011;5858;43.076;25.626;2023-12-20T05:05:44;33.47;;;26.70;;
11604;SDS011;5858;43.076;25.626;2023-12-20T05:08:11;42.00;;;30.53;;
11604;SDS011;5858;43.076;25.626;2023-12-20T05:10:38;38.13;;;30.73;;
11604;SDS011;5858;43.076;25.626;2023-12-20T05:13:05;45.83;;;32.07;;
11604;SDS011;5858;43.076;25.626;2023-12-20T05:15:32;65.43;;;44.03;;
11604;SDS011;5858;43.076;25.626;2023-12-20T05:17:59;63.77;;;44.90;;
11604;SDS011;5858;43.076;25.626;2023-12-20T05:20:27;67.40;;;43.83;;
11604;SDS011;5858;43.076;25.626;2023-12-20T05:22:56;74.73;;;45.07;;
11604;SDS011;5858;43.076;25.626;2023-12-20T05:25:23;78.10;;;46.10;;
11604;SDS011;5858;43.076;25.626;2023-12-20T05:27:50;76.97;;;49.83;;
11604;SDS011;5858;43.076;25.626;2023-12-20T05:30:17;77.47;;;46.23;;
11604;SDS011;5858;43.076;25.626;2023-12-20T05:32:45;66.97;;;44.93;;
11604;SDS011;5858;43.076;25.626;2023-12-20T05:35:12;62.60;;;41.27;;
11604;SDS011;5858;43.076;25.626;2023-12-20T05:37:40;48.30;;;33.77;;
11604;SDS011;5858;43.076;25.626;2023-12-20T05:40:07;50.50;;;36.00;;
11604;SDS011;5858;43.076;25.626;2023-12-20T05:42:38;56.90;;;38.10;;
11604;SDS011;5858;43.076;25.626;2023-12-20T05:45:05;60.70;;;49.20;;
11604;SDS011;5858;43.076;25.626;2023-12-20T05:47:34;58.00;;;39.83;;
11604;SDS011;5858;43.076;25.626;2023-12-20T05:50:09;45.97;;;35.37;;
11604;SDS011;5858;43.076;25.626;2023-12-20T05:52:36;56.47;;;37.30;;
11604;SDS011;5858;43.076;25.626;2023-12-20T05:55:08;43.83;;;34.27;;
11604;SDS011;5858;43.076;25.626;2023-12-20T05:57:38;51.53;;;36.07;;
11604;SDS011;5858;43.076;25.626;2023-12-20T06:00:05;54.67;;;38.87;;
11604;SDS011;5858;43.076;25.626;2023-12-20T06:02:48;59.90;;;45.13;;
11604;SDS011;5858;43.076;25.626;2023-12-20T06:05:17;60.63;;;44.60;;
11604;SDS011;5858;43.076;25.626;2023-12-20T06:07:47;61.20;;;45.03;;
11604;SDS011;5858;43.076;25.626;2023-12-20T06:10:18;55.70;;;40.37;;
11604;SDS011;5858;43.076;25.626;2023-12-20T06:12:47;55.50;;;41.50;;
11604;SDS011;5858;43.076;25.626;2023-12-20T06:15:32;49.90;;;38.53;;
11604;SDS011;5858;43.076;25.626;2023-12-20T06:22:08;48.40;;;35.73;;
11604;SDS011;5858;43.076;25.626;2023-12-20T06:24:36;46.83;;;37.10;;
11604;SDS011;5858;43.076;25.626;2023-12-20T06:27:03;50.17;;;35.03;;
11604;SDS011;5858;43.076;25.626;2023-12-20T06:29:32;45.90;;;36.40;;
11604;SDS011;5858;43.076;25.626;2023-12-20T06:32:00;46.07;;;35.23;;
11604;SDS011;5858;43.076;25.626;2023-12-20T06:34:27;59.37;;;39.30;;
11604;SDS011;5858;43.076;25.626;2023-12-20T06:36:54;53.00;;;38.60;;
11604;SDS011;5858;43.076;25.626;2023-12-20T06:39:22;57.57;;;42.03;;
11604;SDS011;5858;43.076;25.626;2023-12-20T06:41:49;57.20;;;41.73;;
11604;SDS011;5858;43.076;25.626;2023-12-20T06:44:25;53.23;;;39.17;;
11604;SDS011;5858;43.076;25.626;2023-12-20T06:46:58;50.87;;;39.20;;
11604;SDS011;5858;43.076;25.626;2023-12-20T06:49:42;53.77;;;38.77;;
11604;SDS011;5858;43.076;25.626;2023-12-20T06:52:44;56.50;;;41.23;;
11604;SDS011;5858;43.076;25.626;2023-12-20T06:58:25;48.30;;;36.07;;
11604;SDS011;5858;43.076;25.626;2023-12-20T07:22:19;54.60;;;40.63;;
11604;SDS011;5858;43.076;25.626;2023-12-20T07:24:46;54.90;;;38.73;;
11604;SDS011;5858;43.076;25.626;2023-12-20T07:27:17;61.37;;;40.40;;
11604;SDS011;5858;43.076;25.626;2023-12-20T07:29:44;61.43;;;46.93;;
11604;SDS011;5858;43.076;25.626;2023-12-20T07:32:11;60.73;;;44.47;;
11604;SDS011;5858;43.076;25.626;2023-12-20T07:34:45;61.50;;;45.67;;
11604;SDS011;5858;43.076;25.626;2023-12-20T07:37:14;57.77;;;43.77;;
11604;SDS011;5858;43.076;25.626;2023-12-20T07:39:50;63.83;;;44.57;;
11604;SDS011;5858;43.076;25.626;2023-12-20T07:42:20;62.60;;;45.70;;
11604;SDS011;5858;43.076;25.626;2023-12-20T07:44:51;59.17;;;43.57;;
11604;SDS011;5858;43.076;25.626;2023-12-20T07:47:21;65.87;;;49.43;;
11604;SDS011;5858;43.076;25.626;2023-12-20T07:49:52;37.33;;;28.70;;
11604;SDS011;5858;43.076;25.626;2023-12-20T07:52:21;51.53;;;37.17;;
11604;SDS011;5858;43.076;25.626;2023-12-20T07:54:51;49.40;;;35.63;;
11604;SDS011;5858;43.076;25.626;2023-12-20T07:57:24;42.33;;;31.47;;
11604;SDS011;5858;43.076;25.626;2023-12-20T07:59:54;43.20;;;29.77;;
11604;SDS011;5858;43.076;25.626;2023-12-20T08:02:33;40.83;;;27.57;;
11604;SDS011;5858;43.076;25.626;2023-12-20T08:05:02;37.73;;;26.17;;
11604;SDS011;5858;43.076;25.626;2023-12-20T08:07:32;38.37;;;28.30;;
11604;SDS011;5858;43.076;25.626;2023-12-20T08:10:00;56.60;;;37.70;;
11604;SDS011;5858;43.076;25.626;2023-12-20T08:12:35;48.63;;;38.27;;
11604;SDS011;5858;43.076;25.626;2023-12-20T08:15:05;61.83;;;42.63;;
11604;SDS011;5858;43.076;25.626;2023-12-20T08:17:33;53.40;;;36.77;;
11604;SDS011;5858;43.076;25.626;2023-12-20T08:19:59;46.27;;;35.63;;
11604;SDS011;5858;43.076;25.626;2023-12-20T08:22:44;48.13;;;35.87;;
11604;SDS011;5858;43.076;25.626;2023-12-20T08:25:11;47.60;;;36.50;;
11604;SDS011;5858;43.076;25.626;2023-12-20T08:27:39;49.83;;;36.67;;
11604;SDS011;5858;43.076;25.626;2023-12-20T08:30:10;46.03;;;35.17;;
11604;SDS011;5858;43.076;25.626;2023-12-20T08:32:42;42.53;;;31.20;;
11604;SDS011;5858;43.076;25.626;2023-12-20T08:35:11;39.77;;;28.17;;
11604;SDS011;5858;43.076;25.626;2023-12-20T08:37:53;38.23;;;27.90;;
11604;SDS011;5858;43.076;25.626;2023-12-20T08:40:26;41.70;;;28.60;;
11604;SDS011;5858;43.076;25.626;2023-12-20T08:43:24;41.50;;;29.83;;
11604;SDS011;5858;43.076;25.626;2023-12-20T08:46:04;38.57;;;28.67;;
11604;SDS011;5858;43.076;25.626;2023-12-20T08:48:54;36.67;;;27.20;;
11604;SDS011;5858;43.076;25.626;2023-12-20T08:51:39;33.83;;;27.77;;
11604;SDS011;5858;43.076;25.626;2023-12-20T08:54:53;49.13;;;34.13;;
11604;SDS011;5858;43.076;25.626;2023-12-20T08:57:21;54.83;;;36.23;;
11604;SDS011;5858;43.076;25.626;2023-12-20T08:59:48;50.53;;;33.83;;
11604;SDS011;5858;43.076;25.626;2023-12-20T09:02:16;49.73;;;36.20;;
11604;SDS011;5858;43.076;25.626;2023-12-20T09:12:05;79.77;;;47.00;;
11604;SDS011;5858;43.076;25.626;2023-12-20T09:15:17;55.97;;;35.63;;
11604;SDS011;5858;43.076;25.626;2023-12-20T09:18:26;56.50;;;33.40;;
11604;SDS011;5858;43.076;25.626;2023-12-20T09:21:17;51.97;;;30.70;;
11604;SDS011;5858;43.076;25.626;2023-12-20T09:24:20;43.10;;;29.73;;
11604;SDS011;5858;43.076;25.626;2023-12-20T09:32:52;44.57;;;31.47;;
11604;SDS011;5858;43.076;25.626;2023-12-20T09:36:06;46.67;;;31.50;;
11604;SDS011;5858;43.076;25.626;2023-12-20T09:38:42;55.80;;;36.67;;
11604;SDS011;5858;43.076;25.626;2023-12-20T09:47:25;50.00;;;32.60;;
11604;SDS011;5858;43.076;25.626;2023-12-20T09:50:12;52.03;;;33.93;;
11604;SDS011;5858;43.076;25.626;2023-12-20T09:53:07;49.47;;;32.63;;
11604;SDS011;5858;43.076;25.626;2023-12-20T09:56:14;53.77;;;33.67;;
11604;SDS011;5858;43.076;25.626;2023-12-20T09:58:47;59.40;;;30.87;;
11604;SDS011;5858;43.076;25.626;2023-12-20T10:01:16;26.23;;;17.60;;
11604;SDS011;5858;43.076;25.626;2023-12-20T10:04:05;41.43;;;26.00;;
11604;SDS011;5858;43.076;25.626;2023-12-20T10:06:42;44.53;;;29.23;;
11604;SDS011;5858;43.076;25.626;2023-12-20T10:09:16;46.93;;;29.53;;
11604;SDS011;5858;43.076;25.626;2023-12-20T10:11:43;53.70;;;31.13;;
11604;SDS011;5858;43.076;25.626;2023-12-20T10:14:15;44.90;;;30.17;;
11604;SDS011;5858;43.076;25.626;2023-12-20T10:16:43;42.03;;;27.80;;
11604;SDS011;5858;43.076;25.626;2023-12-20T10:19:16;46.53;;;31.33;;
11604;SDS011;5858;43.076;25.626;2023-12-20T10:21:46;47.67;;;32.80;;
11604;SDS011;5858;43.076;25.626;2023-12-20T10:24:36;46.97;;;32.83;;
11604;SDS011;5858;43.076;25.626;2023-12-20T10:27:39;45.30;;;29.13;;
11604;SDS011;5858;43.076;25.626;2023-12-20T10:30:12;46.53;;;31.20;;
11604;SDS011;5858;43.076;25.626;2023-12-20T10:32:44;55.87;;;36.73;;
11604;SDS011;5858;43.076;25.626;2023-12-20T10:35:17;52.17;;;34.33;;
11604;SDS011;5858;43.076;25.626;2023-12-20T10:44:25;47.77;;;34.10;;
11604;SDS011;5858;43.076;25.626;2023-12-20T10:50:08;50.50;;;34.10;;
11604;SDS011;5858;43.076;25.626;2023-12-20T10:55:31;45.83;;;29.17;;
11604;SDS011;5858;43.076;25.626;2023-12-20T10:58:33;46.77;;;32.17;;
11604;SDS011;5858;43.076;25.626;2023-12-20T11:01:23;39.67;;;28.20;;
11604;SDS011;5858;43.076;25.626;2023-12-20T11:04:03;41.13;;;29.27;;
11604;SDS011;5858;43.076;25.626;2023-12-20T11:07:04;44.93;;;28.97;;
11604;SDS011;5858;43.076;25.626;2023-12-20T11:12:52;33.13;;;26.13;;
11604;SDS011;5858;43.076;25.626;2023-12-20T11:15:22;31.13;;;25.80;;
11604;SDS011;5858;43.076;25.626;2023-12-20T11:18:05;28.37;;;20.77;;
11604;SDS011;5858;43.076;25.626;2023-12-20T11:20:45;59.80;;;36.23;;
11604;SDS011;5858;43.076;25.626;2023-12-20T11:29:41;71.07;;;49.70;;
11604;SDS011;5858;43.076;25.626;2023-12-20T11:33:07;27.53;;;19.80;;
11604;SDS011;5858;43.076;25.626;2023-12-20T11:38:12;28.50;;;20.33;;
11604;SDS011;5858;43.076;25.626;2023-12-20T11:38:35;30.67;;;22.10;;
11604;SDS011;5858;43.076;25.626;2023-12-20T11:44:31;25.87;;;18.43;;
11604;SDS011;5858;43.076;25.626;2023-12-20T11:47:36;19.90;;;16.77;;
11604;SDS011;5858;43.076;25.626;2023-12-20T11:50:45;24.70;;;17.73;;
11604;SDS011;5858;43.076;25.626;2023-12-20T11:53:26;22.37;;;16.63;;
11604;SDS011;5858;43.076;25.626;2023-12-20T11:56:03;30.37;;;20.37;;
11604;SDS011;5858;43.076;25.626;2023-12-20T11:58:54;50.27;;;35.47;;
11604;SDS011;5858;43.076;25.626;2023-12-20T12:01:31;78.13;;;52.47;;
11604;SDS011;5858;43.076;25.626;2023-12-20T12:04:08;53.67;;;36.07;;
11604;SDS011;5858;43.076;25.626;2023-12-20T12:06:47;28.83;;;20.07;;
11604;SDS011;5858;43.076;25.626;2023-12-20T12:09:17;26.07;;;20.17;;
11604;SDS011;5858;43.076;25.626;2023-12-20T12:11:48;28.47;;;21.03;;
11604;SDS011;5858;43.076;25.626;2023-12-20T12:14:17;36.50;;;21.33;;
11604;SDS011;5858;43.076;25.626;2023-12-20T12:16:45;26.23;;;20.10;;
11604;SDS011;5858;43.076;25.626;2023-12-20T12:19:21;35.63;;;22.47;;
11604;SDS011;5858;43.076;25.626;2023-12-20T12:21:53;50.07;;;23.63;;
11604;SDS011;5858;43.076;25.626;2023-12-20T12:24:34;32.67;;;22.47;;
11604;SDS011;5858;43.076;25.626;2023-12-20T12:27:05;48.97;;;25.00;;
11604;SDS011;5858;43.076;25.626;2023-12-20T12:29:33;30.33;;;23.13;;
11604;SDS011;5858;43.076;25.626;2023-12-20T12:32:01;27.37;;;19.97;;
11604;SDS011;5858;43.076;25.626;2023-12-20T12:34:37;28.13;;;18.60;;
11604;SDS011;5858;43.076;25.626;2023-12-20T12:37:04;23.40;;;18.13;;
11604;SDS011;5858;43.076;25.626;2023-12-20T12:39:35;29.40;;;18.67;;
11604;SDS011;5858;43.076;25.626;2023-12-20T12:42:06;34.50;;;21.73;;
11604;SDS011;5858;43.076;25.626;2023-12-20T12:44:36;20.23;;;14.83;;
11604;SDS011;5858;43.076;25.626;2023-12-20T12:47:09;18.83;;;14.50;;
11604;SDS011;5858;43.076;25.626;2023-12-20T12:49:51;42.87;;;29.27;;
11604;SDS011;5858;43.076;25.626;2023-12-20T12:52:19;36.73;;;22.17;;
11604;SDS011;5858;43.076;25.626;2023-12-20T12:54:46;28.83;;;17.70;;
11604;SDS011;5858;43.076;25.626;2023-12-20T12:57:13;48.40;;;23.27;;
11604;SDS011;5858;43.076;25.626;2023-12-20T12:59:42;32.83;;;18.90;;
11604;SDS011;5858;43.076;25.626;2023-12-20T13:02:11;19.63;;;16.37;;
11604;SDS011;5858;43.076;25.626;2023-12-20T13:04:43;37.67;;;22.23;;
11604;SDS011;5858;43.076;25.626;2023-12-20T13:07:11;39.17;;;26.17;;
11604;SDS011;5858;43.076;25.626;2023-12-20T13:09:43;25.57;;;17.00;;
11604;SDS011;5858;43.076;25.626;2023-12-20T13:12:16;23.20;;;17.57;;
11604;SDS011;5858;43.076;25.626;2023-12-20T13:14:46;34.20;;;18.30;;
11604;SDS011;5858;43.076;25.626;2023-12-20T13:17:13;38.23;;;19.57;;
11604;SDS011;5858;43.076;25.626;2023-12-20T13:19:41;35.23;;;18.33;;
11604;SDS011;5858;43.076;25.626;2023-12-20T13:22:09;61.70;;;21.53;;
11604;SDS011;5858;43.076;25.626;2023-12-20T13:24:39;55.93;;;27.90;;
11604;SDS011;5858;43.076;25.626;2023-12-20T13:27:07;35.67;;;22.00;;
11604;SDS011;5858;43.076;25.626;2023-12-20T13:29:36;26.20;;;19.20;;
11604;SDS011;5858;43.076;25.626;2023-12-20T13:32:03;28.00;;;18.87;;
11604;SDS011;5858;43.076;25.626;2023-12-20T13:34:33;21.03;;;15.03;;
11604;SDS011;5858;43.076;25.626;2023-12-20T13:37:00;19.17;;;14.37;;
11604;SDS011;5858;43.076;25.626;2023-12-20T13:39:29;29.77;;;16.37;;
11604;SDS011;5858;43.076;25.626;2023-12-20T13:42:04;28.30;;;16.53;;
11604;SDS011;5858;43.076;25.626;2023-12-20T13:44:33;31.20;;;16.33;;
11604;SDS011;5858;43.076;25.626;2023-12-20T13:47:01;43.90;;;22.47;;
11604;SDS011;5858;43.076;25.626;2023-12-20T13:49:28;39.17;;;18.20;;
11604;SDS011;5858;43.076;25.626;2023-12-20T13:51:55;37.70;;;19.17;;
11604;SDS011;5858;43.076;25.626;2023-12-20T13:54:24;41.63;;;20.43;;
11604;SDS011;5858;43.076;25.626;2023-12-20T13:56:51;32.90;;;17.20;;
11604;SDS011;5858;43.076;25.626;2023-12-20T13:59:19;43.50;;;20.97;;
11604;SDS011;5858;43.076;25.626;2023-12-20T14:01:46;19.47;;;15.53;;
11604;SDS011;5858;43.076;25.626;2023-12-20T14:04:15;35.70;;;17.97;;
11604;SDS011;5858;43.076;25.626;2023-12-20T14:06:42;31.97;;;17.97;;
11604;SDS011;5858;43.076;25.626;2023-12-20T14:09:09;34.23;;;19.87;;
11604;SDS011;5858;43.076;25.626;2023-12-20T14:11:38;33.10;;;18.60;;
11604;SDS011;5858;43.076;25.626;2023-12-20T14:14:06;59.73;;;22.80;;
11604;SDS011;5858;43.076;25.626;2023-12-20T14:16:35;47.03;;;21.17;;
11604;SDS011;5858;43.076;25.626;2023-12-20T14:19:05;41.53;;;20.17;;
11604;SDS011;5858;43.076;25.626;2023-12-20T14:21:34;38.23;;;19.23;;
11604;SDS011;5858;43.076;25.626;2023-12-20T14:24:01;41.93;;;18.87;;
11604;SDS011;5858;43.076;25.626;2023-12-20T14:26:29;33.33;;;18.57;;
11604;SDS011;5858;43.076;25.626;2023-12-20T14:28:56;49.07;;;24.13;;
11604;SDS011;5858;43.076;25.626;2023-12-20T14:31:23;62.77;;;22.70;;
11604;SDS011;5858;43.076;25.626;2023-12-20T14:33:52;53.70;;;22.90;;
11604;SDS011;5858;43.076;25.626;2023-12-20T14:36:21;67.40;;;26.17;;
11604;SDS011;5858;43.076;25.626;2023-12-20T14:38:48;53.80;;;25.43;;
11604;SDS011;5858;43.076;25.626;2023-12-20T14:41:15;54.70;;;28.33;;
11604;SDS011;5858;43.076;25.626;2023-12-20T14:43:44;67.67;;;27.63;;
11604;SDS011;5858;43.076;25.626;2023-12-20T14:46:11;53.13;;;27.23;;
11604;SDS011;5858;43.076;25.626;2023-12-20T14:48:38;45.83;;;25.77;;
11604;SDS011;5858;43.076;25.626;2023-12-20T14:51:09;38.83;;;24.33;;
11604;SDS011;5858;43.076;25.626;2023-12-20T14:53:39;32.60;;;19.23;;
11604;SDS011;5858;43.076;25.626;2023-12-20T14:56:07;37.50;;;19.93;;
11604;SDS011;5858;43.076;25.626;2023-12-20T14:58:34;42.10;;;22.73;;
11604;SDS011;5858;43.076;25.626;2023-12-20T15:01:03;47.67;;;26.33;;
11604;SDS011;5858;43.076;25.626;2023-12-20T15:03:41;56.90;;;34.50;;
11604;SDS011;5858;43.076;25.626;2023-12-20T15:06:11;47.63;;;26.17;;
11604;SDS011;5858;43.076;25.626;2023-12-20T15:08:38;47.60;;;26.80;;
11604;SDS011;5858;43.076;25.626;2023-12-20T15:11:11;57.63;;;29.53;;
11604;SDS011;5858;43.076;25.626;2023-12-20T15:13:40;64.67;;;28.87;;
11604;SDS011;5858;43.076;25.626;2023-12-20T15:16:10;49.23;;;26.70;;
11604;SDS011;5858;43.076;25.626;2023-12-20T15:18:39;51.83;;;26.90;;
11604;SDS011;5858;43.076;25.626;2023-12-20T15:21:05;56.10;;;25.90;;
11604;SDS011;5858;43.076;25.626;2023-12-20T15:23:34;49.27;;;27.17;;
11604;SDS011;5858;43.076;25.626;2023-12-20T15:26:01;49.70;;;29.07;;
11604;SDS011;5858;43.076;25.626;2023-12-20T15:28:31;48.60;;;30.03;;
11604;SDS011;5858;43.076;25.626;2023-12-20T15:31:09;62.13;;;33.37;;
11604;SDS011;5858;43.076;25.626;2023-12-20T15:33:40;66.57;;;31.90;;
11604;SDS011;5858;43.076;25.626;2023-12-20T15:36:08;70.77;;;31.80;;
11604;SDS011;5858;43.076;25.626;2023-12-20T15:38:36;61.30;;;31.30;;
11604;SDS011;5858;43.076;25.626;2023-12-20T15:41:03;79.47;;;43.93;;
11604;SDS011;5858;43.076;25.626;2023-12-20T15:43:30;68.73;;;43.17;;
11604;SDS011;5858;43.076;25.626;2023-12-20T15:45:57;75.27;;;42.57;;
11604;SDS011;5858;43.076;25.626;2023-12-20T15:48:24;70.33;;;41.30;;
11604;SDS011;5858;43.076;25.626;2023-12-20T15:50:54;87.80;;;42.67;;
11604;SDS011;5858;43.076;25.626;2023-12-20T15:53:27;66.17;;;39.27;;
11604;SDS011;5858;43.076;25.626;2023-12-20T15:56:01;79.20;;;38.73;;
11604;SDS011;5858;43.076;25.626;2023-12-20T15:58:31;80.23;;;37.83;;